Time;durP1;ratioP1;P1;durP2;ratioP2;P2;SDS_P1;SDS_P2;PMS_P1;PMS_P2;Temp;Humidity;BMP_temperature;BMP_pressure;BME280_temperature;BME280_humidity;BME280_pressure;Samples;Min_cycle;Max_cycle;Signal;HPM_P1;HPM_P2
2023/06/17 00:01:10;;;;;;;7.63;6.93;;;16.00;99.90;;;;;;5095688;28;20464;-59
2023/06/17 00:03:38;;;;;;;8.13;7.43;;;16.00;99.90;;;;;;5100488;28;20501;-59
2023/06/17 00:06:05;;;;;;;8.70;7.47;;;15.90;99.90;;;;;;5096167;28;20562;-59
2023/06/17 00:08:33;;;;;;;7.60;6.90;;;15.90;99.90;;;;;;5096318;28;20471;-58
2023/06/17 00:11:00;;;;;;;8.10;7.40;;;15.80;99.90;;;;;;5096150;28;20838;-58
2023/06/17 00:13:28;;;;;;;8.17;6.90;;;15.80;99.90;;;;;;5098882;28;20473;-58
2023/06/17 00:15:59;;;;;;;9.33;7.20;;;15.70;99.90;;;;;;5098282;28;20513;-58
2023/06/17 00:18:26;;;;;;;8.80;7.00;;;15.70;99.90;;;;;;5097864;28;20907;-58
2023/06/17 00:20:54;;;;;;;8.47;7.70;;;15.60;99.90;;;;;;5097729;28;20468;-58
2023/06/17 00:23:21;;;;;;;11.40;7.90;;;15.50;99.90;;;;;;5098175;28;20468;-58
2023/06/17 00:25:49;;;;;;;7.90;7.20;;;15.50;99.90;;;;;;5117628;28;20467;-58
2023/06/17 00:28:16;;;;;;;8.70;7.57;;;15.40;99.90;;;;;;5116606;28;20470;-58
2023/06/17 00:30:47;;;;;;;7.83;7.10;;;15.20;1.00;;;;;;5117192;28;20554;-58
2023/06/17 00:33:16;;;;;;;7.57;6.97;;;15.20;1.00;;;;;;5116322;28;20463;-58
2023/06/17 00:35:43;;;;;;;8.20;7.40;;;15.10;1.00;;;;;;5097948;28;20761;-58
2023/06/17 00:38:10;;;;;;;8.20;7.40;;;15.10;1.00;;;;;;5097217;28;20762;-58
2023/06/17 00:40:37;;;;;;;7.87;7.17;;;15.20;1.00;;;;;;5096682;28;20474;-58
2023/06/17 00:43:05;;;;;;;9.97;8.03;;;15.10;1.00;;;;;;5105774;28;21013;-58
2023/06/17 00:45:38;;;;;;;7.30;6.60;;;15.10;1.00;;;;;;5100999;28;20562;-58
2023/06/17 00:48:07;;;;;;;7.90;7.20;;;15.00;1.00;;;;;;5095692;28;20469;-58
2023/06/17 00:50:36;;;;;;;7.40;6.67;;;14.90;1.00;;;;;;5096928;28;20559;-57
2023/06/17 00:53:03;;;;;;;9.70;6.97;;;14.90;1.00;;;;;;5097135;28;20465;-58
2023/06/17 00:55:32;;;;;;;8.10;7.20;;;14.80;1.00;;;;;;5100849;28;20445;-58
2023/06/17 00:58:00;;;;;;;9.23;7.10;;;14.80;1.00;;;;;;5100650;28;20464;-58
2023/06/17 01:00:27;;;;;;;8.90;8.10;;;14.80;1.00;;;;;;5101540;28;20500;-58
2023/06/17 01:02:56;;;;;;;8.63;7.73;;;14.80;1.00;;;;;;5101034;28;20537;-58
2023/06/17 01:05:24;;;;;;;7.77;6.97;;;14.70;1.00;;;;;;5101385;28;20812;-58
2023/06/17 01:08:09;;;;;;;8.07;7.37;;;14.70;1.00;;;;;;5101553;28;20761;-58
2023/06/17 01:10:45;;;;;;;8.07;7.37;;;14.70;1.00;;;;;;5101113;28;20464;-58
2023/06/17 01:13:16;;;;;;;7.80;7.10;;;14.70;1.00;;;;;;5115936;28;20471;-57
2023/06/17 01:15:43;;;;;;;7.53;6.80;;;14.70;1.00;;;;;;5101134;28;20562;-58
2023/06/17 01:18:11;;;;;;;8.20;7.33;;;14.50;1.00;;;;;;5101284;28;20798;-58
2023/06/17 01:20:40;;;;;;;9.10;8.20;;;14.40;1.00;;;;;;5100814;28;20763;-57
2023/06/17 01:23:11;;;;;;;8.60;7.00;;;14.20;99.90;;;;;;5101469;28;20468;-58
2023/06/17 01:25:40;;;;;;;8.73;7.83;;;14.20;99.90;;;;;;5102531;28;20913;-58
2023/06/17 01:28:16;;;;;;;9.37;8.10;;;14.10;99.90;;;;;;5106397;28;20563;-58
2023/06/17 01:30:44;;;;;;;7.67;6.73;;;14.10;99.90;;;;;;5099725;28;20871;-58
2023/06/17 01:33:13;;;;;;;9.73;8.13;;;14.20;99.90;;;;;;5100491;28;20652;-58
2023/06/17 01:35:46;;;;;;;8.57;7.80;;;14.10;99.90;;;;;;5100398;28;20468;-58
2023/06/17 01:38:20;;;;;;;8.80;8.10;;;14.10;99.90;;;;;;5100110;28;20768;-58
2023/06/17 01:40:53;;;;;;;7.73;7.03;;;14.10;99.90;;;;;;5099868;28;20502;-58
2023/06/17 01:43:21;;;;;;;7.90;7.10;;;14.10;99.90;;;;;;5114482;28;20471;-58
2023/06/17 01:45:49;;;;;;;8.00;7.30;;;14.00;99.90;;;;;;5120303;28;20570;-58
2023/06/17 01:48:16;;;;;;;8.47;7.63;;;13.90;99.90;;;;;;5120135;28;20463;-57
2023/06/17 01:50:43;;;;;;;10.47;8.57;;;13.90;99.90;;;;;;5115786;28;20464;-57
2023/06/17 01:53:10;;;;;;;8.20;7.20;;;13.80;99.90;;;;;;5100328;28;20459;-58
2023/06/17 01:55:38;;;;;;;8.43;7.63;;;13.70;99.90;;;;;;5100725;28;20490;-56
2023/06/17 01:58:07;;;;;;;8.80;8.00;;;13.70;1.00;;;;;;5099814;28;20467;-59
2023/06/17 02:00:34;;;;;;;9.13;8.27;;;13.70;1.00;;;;;;5113980;28;20495;-58
2023/06/17 02:03:02;;;;;;;8.20;7.50;;;13.70;1.00;;;;;;5104643;28;20952;-57
2023/06/17 02:05:29;;;;;;;8.97;8.10;;;13.60;1.00;;;;;;5101657;28;20471;-58
2023/06/17 02:07:59;;;;;;;9.13;8.23;;;13.60;1.00;;;;;;5111121;28;20485;-58
2023/06/17 02:10:26;;;;;;;8.77;7.53;;;13.50;1.00;;;;;;5119446;28;20464;-57
2023/06/17 02:12:54;;;;;;;9.53;7.40;;;13.40;1.00;;;;;;5118055;28;20471;-58
2023/06/17 02:15:22;;;;;;;8.17;7.37;;;13.40;1.00;;;;;;5119809;28;20553;-58
2023/06/17 02:17:51;;;;;;;8.10;7.40;;;13.40;1.00;;;;;;5119778;28;20463;-58
2023/06/17 02:20:19;;;;;;;9.10;7.00;;;13.40;1.00;;;;;;5119572;28;20495;-57
2023/06/17 02:22:46;;;;;;;7.80;7.00;;;13.30;1.00;;;;;;5119754;28;20506;-57
2023/06/17 02:25:13;;;;;;;8.60;7.80;;;13.30;1.00;;;;;;5119317;28;20464;-58
2023/06/17 02:27:40;;;;;;;11.73;8.13;;;13.20;1.00;;;;;;5119359;28;20470;-58
2023/06/17 02:30:09;;;;;;;8.73;7.83;;;13.20;1.00;;;;;;5119178;28;20469;-58
2023/06/17 02:32:38;;;;;;;9.23;8.37;;;13.20;1.00;;;;;;5119527;28;20562;-58
2023/06/17 02:35:07;;;;;;;9.07;8.27;;;13.10;1.00;;;;;;5118973;28;20464;-58
2023/06/17 02:37:34;;;;;;;10.67;7.80;;;13.10;1.00;;;;;;5119530;28;20517;-58
2023/06/17 02:40:02;;;;;;;9.83;8.03;;;13.00;1.00;;;;;;5119185;28;21366;-57
2023/06/17 02:42:29;;;;;;;9.00;8.20;;;13.00;1.00;;;;;;5117647;28;20475;-57
2023/06/17 02:44:56;;;;;;;10.80;8.73;;;12.90;1.00;;;;;;5106354;28;20474;-57
2023/06/17 02:47:24;;;;;;;8.90;8.00;;;12.90;1.00;;;;;;5099153;28;20464;-58
2023/06/17 02:49:53;;;;;;;9.87;8.57;;;12.80;1.00;;;;;;5099906;28;20465;-57
2023/06/17 02:52:20;;;;;;;8.83;8.03;;;12.80;1.00;;;;;;5099454;28;20742;-58
2023/06/17 02:54:48;;;;;;;10.20;8.00;;;12.70;1.50;;;;;;5099404;28;20464;-58
2023/06/17 02:57:15;;;;;;;9.23;8.33;;;12.70;24.80;;;;;;5099036;28;20471;-58
2023/06/17 02:59:42;;;;;;;8.77;8.00;;;12.70;69.00;;;;;;5098194;28;20495;-58
2023/06/17 03:02:10;;;;;;;9.90;8.67;;;12.70;71.80;;;;;;5098882;28;20468;-58
2023/06/17 03:04:37;;;;;;;8.50;7.67;;;12.70;97.60;;;;;;5104768;28;20463;-56
2023/06/17 03:07:06;;;;;;;8.80;7.87;;;12.60;91.90;;;;;;5118630;28;20474;-57
2023/06/17 03:09:34;;;;;;;9.00;8.10;;;12.50;97.20;;;;;;5118605;28;20466;-58
2023/06/17 03:12:02;;;;;;;8.80;7.93;;;12.50;99.90;;;;;;5117273;28;20475;-58
2023/06/17 03:14:29;;;;;;;8.07;7.37;;;12.60;99.90;;;;;;5118347;28;20469;-58
2023/06/17 03:16:57;;;;;;;7.83;7.00;;;12.50;99.90;;;;;;5117263;28;20906;-56
2023/06/17 03:19:24;;;;;;;9.13;8.23;;;12.60;99.90;;;;;;5118507;28;20491;-58
2023/06/17 03:21:52;;;;;;;8.60;7.80;;;12.60;79.00;;;;;;5118621;28;20469;-58
2023/06/17 03:24:21;;;;;;;9.10;8.23;;;12.60;55.00;;;;;;5118201;28;20468;-57
2023/06/17 03:26:48;;;;;;;8.23;7.53;;;12.60;51.30;;;;;;5117976;28;20516;-58
2023/06/17 03:29:16;;;;;;;8.93;8.13;;;12.50;64.60;;;;;;5118312;28;20562;-58
2023/06/17 03:31:43;;;;;;;11.50;8.00;;;12.50;99.90;;;;;;5117993;28;20463;-57
2023/06/17 03:34:11;;;;;;;9.13;8.23;;;12.40;99.90;;;;;;5118305;28;20464;-57
2023/06/17 03:36:39;;;;;;;8.90;8.07;;;12.40;99.90;;;;;;5118054;28;20570;-58
2023/06/17 03:39:07;;;;;;;8.07;7.37;;;12.30;99.90;;;;;;5118187;28;20474;-58
2023/06/17 03:41:35;;;;;;;8.87;7.97;;;12.40;99.90;;;;;;5117924;28;20463;-57
2023/06/17 03:44:02;;;;;;;8.50;7.70;;;12.40;99.90;;;;;;5116248;28;20471;-57
2023/06/17 03:46:29;;;;;;;8.33;7.57;;;12.40;99.90;;;;;;5118047;28;20467;-57
2023/06/17 03:48:57;;;;;;;8.80;7.90;;;12.30;99.90;;;;;;5117938;28;20467;-55
2023/06/17 03:51:24;;;;;;;8.60;7.80;;;12.20;99.90;;;;;;5117909;28;20904;-56
2023/06/17 03:53:51;;;;;;;8.17;7.47;;;12.20;99.90;;;;;;5117617;28;20525;-57
2023/06/17 03:56:19;;;;;;;18.80;8.53;;;12.30;99.90;;;;;;5117602;28;20490;-57
2023/06/17 03:58:47;;;;;;;9.17;7.00;;;12.30;99.90;;;;;;5117541;28;20881;-56
2023/06/17 04:01:15;;;;;;;8.17;7.40;;;12.40;99.90;;;;;;5116879;28;20594;-57
2023/06/17 04:03:43;;;;;;;8.77;7.97;;;12.40;99.90;;;;;;5115888;28;20510;-55
2023/06/17 04:06:10;;;;;;;8.80;8.00;;;12.40;99.90;;;;;;5116815;28;20468;-57
2023/06/17 04:08:39;;;;;;;9.20;8.30;;;12.50;99.90;;;;;;5117305;28;20877;-57
2023/06/17 04:11:06;;;;;;;8.67;7.87;;;12.50;99.90;;;;;;5117421;28;20896;-58
2023/06/17 04:13:34;;;;;;;9.70;8.70;;;12.50;99.90;;;;;;5115162;28;20472;-57
2023/06/17 04:16:02;;;;;;;9.30;8.40;;;12.50;97.70;;;;;;5097229;28;20501;-57
2023/06/17 04:18:29;;;;;;;8.60;7.80;;;12.50;93.80;;;;;;5116433;28;20470;-57
2023/06/17 04:20:57;;;;;;;8.90;8.07;;;12.50;99.90;;;;;;5096982;28;20496;-57
2023/06/17 04:23:24;;;;;;;9.80;8.80;;;12.50;99.90;;;;;;5097526;28;20468;-57
2023/06/17 04:25:51;;;;;;;8.90;8.00;;;12.60;99.90;;;;;;5097492;28;20509;-57
2023/06/17 04:28:19;;;;;;;7.20;6.60;;;12.60;88.30;;;;;;5098257;28;20843;-57
2023/06/17 04:30:47;;;;;;;8.87;8.07;;;12.70;65.60;;;;;;5097709;28;20467;-57
2023/06/17 04:33:16;;;;;;;10.37;8.23;;;12.80;44.10;;;;;;5117306;28;20467;-58
2023/06/17 04:35:44;;;;;;;8.13;7.40;;;12.90;1.00;;;;;;5097669;28;20475;-58
2023/06/17 04:38:12;;;;;;;9.97;8.33;;;12.90;1.00;;;;;;5101715;28;20516;-58
2023/06/17 04:40:39;;;;;;;13.30;8.30;;;12.90;1.00;;;;;;5115885;28;20487;-56
2023/06/17 04:43:06;;;;;;;9.60;7.60;;;12.90;1.00;;;;;;5099410;28;20563;-58
2023/06/17 04:45:35;;;;;;;9.67;8.80;;;12.90;1.00;;;;;;5099113;28;20470;-57
2023/06/17 04:48:05;;;;;;;8.57;7.77;;;12.90;1.00;;;;;;5096082;28;20455;-56
2023/06/17 04:50:35;;;;;;;10.50;7.77;;;12.90;1.00;;;;;;5095460;28;20500;-59
2023/06/17 04:53:03;;;;;;;8.87;8.00;;;12.90;1.00;;;;;;5095013;28;20522;-56
2023/06/17 04:55:35;;;;;;;9.17;7.93;;;13.00;1.00;;;;;;5095863;28;20495;-57
2023/06/17 04:58:04;;;;;;;8.73;7.83;;;13.10;1.00;;;;;;5096106;28;20550;-58
2023/06/17 05:00:31;;;;;;;10.07;7.27;;;13.20;1.00;;;;;;5096859;28;20487;-56
2023/06/17 05:02:58;;;;;;;9.10;8.10;;;13.40;1.00;;;;;;5096809;28;20941;-57
2023/06/17 05:05:25;;;;;;;8.53;7.73;;;13.50;1.00;;;;;;5097227;28;20477;-57
2023/06/17 05:07:54;;;;;;;8.67;7.77;;;13.60;1.00;;;;;;5096877;28;20827;-58
2023/06/17 05:10:21;;;;;;;9.83;7.73;;;13.70;1.00;;;;;;5096909;28;20460;-57
2023/06/17 05:12:48;;;;;;;8.87;7.97;;;13.80;1.00;;;;;;5108858;28;20558;-56
2023/06/17 05:15:16;;;;;;;8.33;7.53;;;14.00;1.00;;;;;;5100721;28;20952;-58
2023/06/17 05:17:43;;;;;;;9.03;8.13;;;14.00;1.00;;;;;;5096869;28;20468;-57
2023/06/17 05:20:11;;;;;;;10.40;8.93;;;14.20;1.00;;;;;;5096693;28;20516;-58
2023/06/17 05:22:38;;;;;;;20.30;18.30;;;14.30;99.90;;;;;;5096625;28;20473;-58
2023/06/17 05:25:08;;;;;;;9.93;7.80;;;14.50;99.90;;;;;;5097053;28;20464;-58
2023/06/17 05:27:37;;;;;;;9.80;7.97;;;14.60;99.90;;;;;;5097160;28;20571;-58
2023/06/17 05:30:05;;;;;;;11.30;8.73;;;14.80;99.90;;;;;;5096405;28;20492;-58
2023/06/17 05:32:33;;;;;;;8.90;7.63;;;15.00;99.90;;;;;;5097136;28;20794;-58
2023/06/17 05:35:00;;;;;;;8.60;7.70;;;15.20;99.90;;;;;;5097172;28;20468;-58
2023/06/17 05:37:27;;;;;;;8.57;7.77;;;15.40;99.90;;;;;;5104367;28;20460;-58
2023/06/17 05:39:54;;;;;;;9.13;8.10;;;15.60;99.90;;;;;;5097496;28;20562;-58
2023/06/17 05:42:23;;;;;;;8.70;7.90;;;15.80;1.00;;;;;;5102455;28;20881;-58
2023/06/17 05:44:50;;;;;;;8.87;8.00;;;15.90;1.00;;;;;;5120078;27;20468;-58
2023/06/17 05:47:17;;;;;;;11.10;9.13;;;16.30;1.00;;;;;;5102528;28;20468;-58
2023/06/17 05:49:44;;;;;;;10.93;8.57;;;16.60;25.90;;;;;;5100747;28;20947;-58
2023/06/17 05:52:11;;;;;;;9.67;8.73;;;16.90;1.00;;;;;;5100196;28;20475;-58
2023/06/17 05:54:39;;;;;;;8.80;8.00;;;17.30;99.90;;;;;;5100180;28;20500;-58
2023/06/17 05:57:06;;;;;;;8.40;7.67;;;17.50;99.90;;;;;;5099726;28;20918;-58
2023/06/17 05:59:35;;;;;;;9.00;8.17;;;17.70;99.90;;;;;;5100325;28;20464;-58
2023/06/17 06:02:02;;;;;;;8.30;7.53;;;17.90;99.90;;;;;;5099750;28;20562;-59
2023/06/17 06:04:29;;;;;;;11.50;8.13;;;18.10;99.90;;;;;;5099716;28;20464;-59
2023/06/17 06:06:57;;;;;;;12.00;7.90;;;18.40;99.90;;;;;;5100504;28;20947;-59
2023/06/17 06:09:24;;;;;;;11.10;7.83;;;18.60;91.80;;;;;;5100359;28;20870;-59
2023/06/17 06:11:51;;;;;;;9.13;8.23;;;18.80;29.10;;;;;;5100373;28;20874;-59
2023/06/17 06:14:18;;;;;;;8.97;8.07;;;19.10;1.00;;;;;;5109486;28;20547;-59
2023/06/17 06:16:47;;;;;;;8.97;8.17;;;19.40;12.60;;;;;;5099846;28;20559;-60
2023/06/17 06:19:14;;;;;;;9.60;8.63;;;19.60;1.00;;;;;;5100156;28;20559;-59
2023/06/17 06:21:41;;;;;;;7.90;7.10;;;19.80;1.00;;;;;;5100179;28;20492;-59
2023/06/17 06:24:09;;;;;;;8.37;7.40;;;19.90;1.00;;;;;;5099701;28;20460;-60
2023/06/17 06:26:36;;;;;;;8.80;8.00;;;20.10;1.00;;;;;;5099919;28;20468;-59
2023/06/17 06:29:03;;;;;;;8.17;7.47;;;20.30;1.00;;;;;;5099575;28;20555;-60
2023/06/17 06:31:31;;;;;;;8.37;7.50;;;20.50;1.00;;;;;;5099762;28;20464;-60
2023/06/17 06:33:59;;;;;;;9.13;8.23;;;21.00;1.00;;;;;;5100255;28;20893;-59
2023/06/17 06:36:26;;;;;;;8.13;7.43;;;20.90;1.00;;;;;;5099651;28;20464;-60
2023/06/17 06:38:54;;;;;;;12.17;7.83;;;20.90;1.00;;;;;;5098714;28;20466;-59
2023/06/17 06:41:21;;;;;;;10.10;8.63;;;21.20;1.00;;;;;;5099012;28;20463;-59
2023/06/17 06:43:49;;;;;;;11.03;7.30;;;21.50;1.00;;;;;;5115619;28;20468;-60
2023/06/17 06:46:16;;;;;;;8.20;7.50;;;21.80;1.00;;;;;;5113398;28;20467;-59
2023/06/17 06:48:43;;;;;;;8.60;7.43;;;21.50;99.90;;;;;;5097654;28;20471;-60
2023/06/17 06:51:13;;;;;;;7.90;7.10;;;21.60;99.90;;;;;;5097073;28;20452;-60
2023/06/17 06:53:40;;;;;;;7.70;7.10;;;21.90;1.00;;;;;;5098448;28;20495;-60
2023/06/17 06:56:07;;;;;;;8.10;7.30;;;22.40;1.00;;;;;;5098347;28;20558;-60
2023/06/17 06:58:35;;;;;;;7.73;7.03;;;22.50;99.90;;;;;;5098848;28;20510;-60
2023/06/17 07:01:02;;;;;;;7.07;6.47;;;22.50;99.90;;;;;;5099396;28;20956;-60
2023/06/17 07:03:29;;;;;;;8.13;7.33;;;23.00;99.90;;;;;;5098828;28;20488;-60
2023/06/17 07:05:56;;;;;;;7.77;7.17;;;22.90;99.90;;;;;;5099256;28;20508;-60
2023/06/17 07:08:25;;;;;;;8.83;7.93;;;23.30;99.90;;;;;;5101050;28;20467;-60
2023/06/17 07:10:53;;;;;;;8.33;7.57;;;23.20;99.90;;;;;;5116873;28;20468;-60
2023/06/17 07:13:20;;;;;;;8.30;7.60;;;23.20;99.90;;;;;;5103512;28;20510;-60
2023/06/17 07:15:47;;;;;;;7.40;6.70;;;23.70;99.90;;;;;;5099361;28;20521;-59
2023/06/17 07:18:15;;;;;;;12.50;7.30;;;23.90;99.90;;;;;;5102339;28;20474;-60
2023/06/17 07:20:42;;;;;;;8.90;7.70;;;24.00;91.80;;;;;;5106334;28;20492;-61
2023/06/17 07:23:09;;;;;;;7.37;6.77;;;24.40;99.90;;;;;;5098953;28;20478;-60
2023/06/17 07:25:40;;;;;;;8.63;6.83;;;24.60;99.90;;;;;;5100281;28;20468;-60
2023/06/17 07:28:08;;;;;;;7.97;7.30;;;25.00;91.30;;;;;;5102913;28;20552;-60
2023/06/17 07:30:35;;;;;;;8.97;8.10;;;25.10;99.90;;;;;;5101456;28;20463;-60
2023/06/17 07:33:04;;;;;;;10.20;7.00;;;25.00;51.80;;;;;;5113531;28;20470;-61
2023/06/17 07:35:31;;;;;;;8.50;7.57;;;25.00;47.60;;;;;;5102319;28;20467;-61
2023/06/17 07:37:58;;;;;;;7.83;6.60;;;25.00;13.60;;;;;;5098711;28;20796;-60
2023/06/17 07:40:26;;;;;;;7.00;6.40;;;25.40;25.60;;;;;;5113116;28;20880;-61
2023/06/17 07:42:55;;;;;;;8.67;7.77;;;25.70;12.50;;;;;;5117334;28;20550;-60
2023/06/17 07:45:22;;;;;;;7.17;6.57;;;26.00;8.60;;;;;;5118350;28;20927;-61
2023/06/17 07:47:49;;;;;;;7.80;7.00;;;26.30;17.10;;;;;;5118072;28;20881;-61
2023/06/17 07:50:17;;;;;;;10.63;6.70;;;26.30;3.10;;;;;;5118004;28;20550;-62
2023/06/17 07:52:44;;;;;;;6.60;6.07;;;26.60;7.00;;;;;;5118065;28;20460;-62
2023/06/17 07:55:12;;;;;;;6.40;5.90;;;26.80;1.00;;;;;;5117561;28;20463;-62
2023/06/17 07:57:39;;;;;;;6.80;6.10;;;26.70;1.00;;;;;;5116924;28;20467;-62
2023/06/17 08:00:12;;;;;;;6.80;5.80;;;26.80;1.00;;;;;;5117451;28;20507;-62
2023/06/17 08:02:40;;;;;;;12.13;6.20;;;27.20;1.00;;;;;;5116891;28;20510;-62
2023/06/17 08:05:09;;;;;;;8.50;7.60;;;27.60;1.00;;;;;;5117777;28;20501;-61
2023/06/17 08:07:36;;;;;;;7.67;7.07;;;26.50;1.00;;;;;;5117671;28;20507;-61
2023/06/17 08:10:04;;;;;;;7.00;6.40;;;26.70;1.00;;;;;;5116982;28;20499;-62
2023/06/17 08:12:32;;;;;;;7.73;6.47;;;26.60;1.00;;;;;;5116643;28;20906;-62
2023/06/17 08:14:59;;;;;;;7.23;6.53;;;26.30;1.00;;;;;;5117212;28;20464;-62
2023/06/17 08:17:28;;;;;;;5.53;5.13;;;26.30;1.00;;;;;;5117741;28;20451;-62
2023/06/17 08:19:56;;;;;;;9.77;7.20;;;26.90;1.00;;;;;;5115785;28;20817;-61
2023/06/17 08:22:23;;;;;;;7.30;6.70;;;27.30;1.00;;;;;;5100522;28;20489;-62
2023/06/17 08:24:51;;;;;;;7.20;6.70;;;27.00;1.00;;;;;;5097990;28;20494;-61
2023/06/17 08:27:18;;;;;;;8.07;7.37;;;27.80;1.00;;;;;;5097232;28;20471;-62
2023/06/17 08:29:45;;;;;;;7.60;6.80;;;27.90;1.00;;;;;;5097586;28;20474;-61
2023/06/17 08:32:13;;;;;;;7.93;7.13;;;27.30;1.00;;;;;;5105495;28;20501;-62
2023/06/17 08:34:42;;;;;;;7.40;6.73;;;27.70;1.00;;;;;;5112406;28;20456;-62
2023/06/17 08:37:09;;;;;;;11.03;7.03;;;27.10;1.00;;;;;;5110279;28;20464;-62
2023/06/17 08:39:39;;;;;;;10.03;7.93;;;27.10;1.00;;;;;;5114804;28;20460;-62
2023/06/17 08:42:08;;;;;;;7.30;6.70;;;27.70;1.00;;;;;;5111814;28;20483;-62
2023/06/17 08:44:40;;;;;;;7.63;6.50;;;27.20;1.00;;;;;;5099828;28;20464;-63
2023/06/17 08:47:08;;;;;;;9.27;7.30;;;27.40;1.00;;;;;;5102004;28;20463;-62
2023/06/17 08:49:36;;;;;;;7.83;6.90;;;27.60;1.00;;;;;;5098996;28;20464;-60
2023/06/17 08:52:06;;;;;;;7.63;6.43;;;28.10;1.00;;;;;;5096650;28;20470;-61
2023/06/17 08:54:40;;;;;;;7.83;7.13;;;28.00;1.00;;;;;;5097368;28;20468;-61
2023/06/17 08:57:11;;;;;;;7.50;6.90;;;28.10;1.00;;;;;;5096795;28;20468;-61
2023/06/17 08:59:38;;;;;;;7.80;6.00;;;29.00;1.00;;;;;;5107204;28;20949;-61
2023/06/17 09:02:06;;;;;;;8.13;7.07;;;28.90;1.00;;;;;;5095861;28;20502;-61
2023/06/17 09:04:35;;;;;;;7.23;6.60;;;27.90;1.00;;;;;;5095545;28;20471;-61
2023/06/17 09:07:04;;;;;;;9.40;6.70;;;27.40;1.00;;;;;;5100885;28;20492;-63
2023/06/17 09:09:31;;;;;;;8.27;7.57;;;27.00;1.00;;;;;;5095653;28;20502;-62
2023/06/17 09:12:04;;;;;;;8.80;7.83;;;26.60;1.00;;;;;;5097864;28;20461;-62
2023/06/17 09:14:32;;;;;;;8.17;6.53;;;26.40;1.00;;;;;;5104021;28;20894;-60
2023/06/17 09:17:00;;;;;;;7.97;7.13;;;26.90;1.00;;;;;;5101522;28;20865;-61
2023/06/17 09:19:31;;;;;;;8.13;7.13;;;27.70;1.00;;;;;;5113358;28;20497;-61
2023/06/17 09:22:06;;;;;;;10.57;8.20;;;28.10;1.00;;;;;;5101486;28;20917;-63
2023/06/17 09:24:34;;;;;;;8.73;7.57;;;28.50;1.00;;;;;;5101007;28;20482;-62
2023/06/17 09:27:03;;;;;;;8.63;7.27;;;28.60;1.00;;;;;;5100790;28;20475;-63
2023/06/17 09:29:31;;;;;;;8.17;7.47;;;27.50;1.00;;;;;;5102288;28;20471;-62
2023/06/17 09:32:02;;;;;;;7.87;7.17;;;27.50;1.00;;;;;;5103485;28;20472;-61
2023/06/17 09:34:29;;;;;;;8.13;7.43;;;27.20;1.00;;;;;;5116095;28;20517;-61
2023/06/17 09:37:00;;;;;;;7.90;7.13;;;27.40;1.00;;;;;;5102757;28;20468;-60
2023/06/17 09:39:33;;;;;;;8.10;7.30;;;27.90;1.00;;;;;;5102662;28;20543;-61
2023/06/17 09:42:09;;;;;;;7.33;6.73;;;28.70;1.00;;;;;;5099131;28;20964;-61
2023/06/17 09:44:38;;;;;;;7.40;6.80;;;29.20;1.00;;;;;;5110030;28;20517;-63
2023/06/17 09:47:09;;;;;;;7.30;6.80;;;28.40;1.00;;;;;;5101115;28;20873;-62
2023/06/17 09:49:36;;;;;;;7.03;6.43;;;27.80;1.00;;;;;;5100857;28;20486;-64
2023/06/17 09:52:08;;;;;;;8.33;7.53;;;28.30;1.00;;;;;;5100387;28;20456;-61
2023/06/17 09:54:37;;;;;;;7.33;6.63;;;28.40;1.00;;;;;;5100361;28;20471;-63
2023/06/17 09:57:09;;;;;;;7.57;6.63;;;29.10;1.00;;;;;;5119648;28;20520;-61
2023/06/17 09:59:37;;;;;;;7.73;7.00;;;28.50;1.00;;;;;;5117632;28;20475;-61
2023/06/17 10:02:05;;;;;;;6.97;6.40;;;28.20;1.00;;;;;;5117262;28;20495;-61
2023/06/17 10:04:33;;;;;;;6.93;6.30;;;27.90;1.00;;;;;;5110207;28;20844;-62
2023/06/17 10:07:02;;;;;;;7.33;6.73;;;28.30;1.00;;;;;;5098896;28;20468;-61
2023/06/17 10:09:30;;;;;;;7.87;7.10;;;29.50;1.00;;;;;;5098534;28;20488;-61
2023/06/17 10:12:01;;;;;;;6.97;6.40;;;30.20;1.00;;;;;;5102836;28;20526;-62
2023/06/17 10:14:32;;;;;;;9.03;6.93;;;29.70;1.00;;;;;;5108738;28;20582;-62
2023/06/17 10:17:01;;;;;;;7.27;6.67;;;30.20;1.00;;;;;;5099983;28;20475;-60
2023/06/17 10:19:32;;;;;;;6.97;6.47;;;30.50;1.00;;;;;;5104695;28;20468;-62
2023/06/17 10:22:02;;;;;;;6.80;6.30;;;29.80;1.00;;;;;;5099079;28;20882;-64
2023/06/17 10:24:30;;;;;;;6.00;5.60;;;28.40;1.00;;;;;;5098643;28;20476;-60
2023/06/17 10:27:03;;;;;;;5.90;5.40;;;28.30;1.00;;;;;;5099322;28;20537;-60
2023/06/17 10:29:32;;;;;;;9.50;6.60;;;27.40;1.00;;;;;;5100072;28;20753;-61
2023/06/17 10:32:17;;;;;;;6.83;6.33;;;27.70;1.00;;;;;;5100279;28;20543;-61
2023/06/17 10:35:11;;;;;;;7.70;7.10;;;27.60;1.00;;;;;;5115091;28;20450;-62
2023/06/17 10:37:42;;;;;;;7.33;6.63;;;28.40;1.00;;;;;;5106482;28;20464;-61
2023/06/17 10:40:26;;;;;;;8.83;8.00;;;27.70;1.00;;;;;;5111192;28;20764;-60
2023/06/17 10:43:17;;;;;;;8.83;8.03;;;28.40;1.00;;;;;;5112691;28;20478;-61
2023/06/17 10:45:53;;;;;;;7.23;6.53;;;28.60;1.00;;;;;;5105758;28;20455;-59
2023/06/17 10:48:22;;;;;;;8.10;7.30;;;29.80;1.00;;;;;;5096467;28;20789;-62
2023/06/17 10:50:56;;;;;;;7.20;6.50;;;30.00;1.00;;;;;;5097487;28;20465;-60
2023/06/17 10:53:29;;;;;;;7.27;6.63;;;29.10;1.00;;;;;;5098497;28;20463;-61
2023/06/17 10:55:57;;;;;;;8.60;7.80;;;29.60;1.00;;;;;;5098820;28;20522;-62
2023/06/17 10:58:31;;;;;;;7.70;6.97;;;29.20;1.00;;;;;;5108957;28;20448;-63
2023/06/17 11:01:02;;;;;;;8.70;8.00;;;29.20;1.00;;;;;;5108095;28;20474;-61
2023/06/17 11:03:30;;;;;;;7.90;7.10;;;28.50;1.00;;;;;;5105075;28;20503;-61
2023/06/17 11:06:02;;;;;;;8.40;7.60;;;29.20;1.00;;;;;;5108442;28;20456;-61
2023/06/17 11:08:31;;;;;;;8.90;6.90;;;29.30;1.00;;;;;;5098234;28;20467;-61
2023/06/17 11:11:15;;;;;;;8.73;7.40;;;29.90;1.00;;;;;;5097599;28;20468;-61
2023/06/17 11:13:47;;;;;;;8.63;7.50;;;29.60;1.00;;;;;;5098543;28;20798;-60
2023/06/17 11:16:15;;;;;;;8.33;7.50;;;29.50;1.00;;;;;;5112850;28;20520;-60
2023/06/17 11:18:44;;;;;;;8.47;6.30;;;29.50;1.00;;;;;;5114134;28;20966;-61
2023/06/17 11:21:13;;;;;;;7.93;7.23;;;29.40;1.00;;;;;;5109675;28;20575;-60
2023/06/17 11:23:45;;;;;;;6.97;6.37;;;30.30;1.00;;;;;;5099097;28;20496;-60
2023/06/17 11:26:13;;;;;;;7.23;6.63;;;30.90;1.00;;;;;;5098442;28;20567;-61
2023/06/17 11:28:40;;;;;;;8.50;7.70;;;31.70;1.00;;;;;;5098651;28;20574;-61
2023/06/17 11:31:09;;;;;;;11.63;7.13;;;30.20;1.00;;;;;;5098347;28;20839;-60
2023/06/17 11:33:37;;;;;;;8.03;6.63;;;29.50;1.00;;;;;;5098968;28;20563;-61
2023/06/17 11:36:08;;;;;;;7.00;6.33;;;29.30;1.00;;;;;;5098105;28;20468;-61
2023/06/17 11:38:35;;;;;;;7.77;7.00;;;29.30;1.00;;;;;;5097607;28;20467;-61
2023/06/17 11:41:03;;;;;;;7.00;6.40;;;30.70;1.00;;;;;;5098702;28;20486;-61
2023/06/17 11:43:30;;;;;;;6.70;6.10;;;29.90;1.00;;;;;;5114340;28;20598;-60
2023/06/17 11:45:58;;;;;;;7.50;6.80;;;29.50;1.00;;;;;;5114429;28;20463;-62
2023/06/17 11:48:34;;;;;;;6.77;6.27;;;30.20;1.00;;;;;;5109488;28;20984;-60
2023/06/17 11:51:01;;;;;;;6.90;6.30;;;31.20;1.00;;;;;;5098456;28;20459;-61
2023/06/17 11:53:31;;;;;;;7.90;7.20;;;30.80;1.00;;;;;;5098243;28;20559;-61
2023/06/17 11:56:03;;;;;;;7.70;6.37;;;30.40;1.00;;;;;;5098387;28;20456;-62
2023/06/17 11:58:32;;;;;;;7.40;6.80;;;29.70;1.00;;;;;;5110030;28;20550;-62
2023/06/17 12:01:02;;;;;;;6.97;6.40;;;29.10;1.00;;;;;;5114730;28;20509;-60
2023/06/17 12:03:31;;;;;;;7.10;6.40;;;28.90;1.00;;;;;;5105293;28;20778;-62
2023/06/17 12:05:59;;;;;;;6.97;6.33;;;29.00;1.00;;;;;;5116929;28;20470;-61
2023/06/17 12:08:32;;;;;;;7.97;7.10;;;28.80;1.00;;;;;;5116866;28;20904;-60
2023/06/17 12:10:59;;;;;;;11.13;10.03;;;29.70;1.00;;;;;;5115655;28;20476;-61
2023/06/17 12:13:38;;;;;;;7.17;6.60;;;30.80;1.00;;;;;;5116404;28;21155;-61
2023/06/17 12:16:10;;;;;;;6.90;6.40;;;30.70;1.00;;;;;;5115353;28;20466;-60
2023/06/17 12:18:47;;;;;;;6.43;6.03;;;31.10;1.00;;;;;;5115595;28;20822;-61
2023/06/17 12:21:16;;;;;;;7.27;6.67;;;29.90;1.00;;;;;;5115406;28;20759;-58
2023/06/17 12:23:43;;;;;;;7.27;6.60;;;29.90;1.00;;;;;;5108643;28;20495;-60
2023/06/17 12:26:10;;;;;;;6.90;6.40;;;31.10;1.00;;;;;;5095365;28;20563;-60
2023/06/17 12:28:40;;;;;;;5.90;5.50;;;32.30;1.00;;;;;;5095301;28;20907;-61
2023/06/17 12:31:08;;;;;;;6.57;6.07;;;32.60;1.00;;;;;;5112540;28;20918;-61
2023/06/17 12:33:36;;;;;;;6.67;6.17;;;32.30;1.00;;;;;;5100582;28;20897;-62
2023/06/17 12:36:06;;;;;;;7.20;6.50;;;30.50;1.00;;;;;;5097327;28;20562;-61
2023/06/17 12:38:33;;;;;;;6.40;5.83;;;30.90;1.00;;;;;;5100022;28;20478;-62
2023/06/17 12:41:02;;;;;;;6.93;6.43;;;29.80;1.00;;;;;;5105952;28;20477;-61
2023/06/17 12:43:29;;;;;;;7.13;6.50;;;29.80;1.00;;;;;;5113146;28;20933;-62
2023/06/17 12:45:58;;;;;;;6.80;6.30;;;30.40;1.00;;;;;;5114809;28;20753;-63
2023/06/17 12:48:26;;;;;;;7.93;7.13;;;29.70;1.00;;;;;;5114911;28;20931;-60
2023/06/17 12:50:53;;;;;;;7.00;6.40;;;29.80;1.00;;;;;;5113847;28;20755;-60
2023/06/17 12:53:22;;;;;;;7.30;6.67;;;30.90;1.00;;;;;;5115910;28;20487;-60
2023/06/17 12:55:51;;;;;;;8.53;7.80;;;32.00;1.00;;;;;;5114846;28;20491;-60
2023/06/17 12:58:18;;;;;;;6.87;6.20;;;31.50;1.00;;;;;;5114306;28;20746;-61
2023/06/17 13:00:45;;;;;;;7.10;6.50;;;31.10;1.00;;;;;;5114428;28;20797;-61